Time;durP1;ratioP1;P1;durP2;ratioP2;P2;SDS_P1;SDS_P2;PMS_P1;PMS_P2;Temp;Humidity;BMP_temperature;BMP_pressure;BME280_temperature;BME280_humidity;BME280_pressure;Samples;Min_cycle;Max_cycle;Signal;HPM_P1;HPM_P2
2022/04/20 00:02:09;;;;;;;6.60;3.63;;;;;;;5.95;100.00;101843.47;10308355;28;20503;-76
2022/04/20 00:07:10;;;;;;;6.78;3.40;;;;;;;5.94;100.00;101836.31;10307748;28;20039;-76
2022/04/20 00:12:11;;;;;;;7.00;3.38;;;;;;;5.53;100.00;101782.41;10308073;28;20093;-76
2022/04/20 00:17:11;;;;;;;5.30;2.92;;;;;;;5.74;100.00;101826.06;10308371;28;20031;-76
2022/04/20 00:22:11;;;;;;;7.22;3.35;;;;;;;5.72;100.00;101830.88;10322575;28;20027;-76
2022/04/20 00:27:12;;;;;;;5.18;2.80;;;;;;;5.74;100.00;101839.72;10307634;28;20058;-76
2022/04/20 00:32:12;;;;;;;6.53;3.15;;;;;;;5.61;100.00;101831.44;10306057;28;20045;-76
2022/04/20 00:37:13;;;;;;;4.72;2.90;;;;;;;5.51;100.00;101822.75;10306126;28;20502;-76
2022/04/20 00:42:14;;;;;;;5.43;2.78;;;;;;;5.50;100.00;101840.16;10344630;28;20045;-76
2022/04/20 00:47:14;;;;;;;7.55;4.30;;;;;;;5.50;100.00;101849.22;10310565;28;20049;-76
2022/04/20 00:52:15;;;;;;;4.78;2.60;;;;;;;5.46;100.00;101842.47;10304854;28;20058;-76
2022/04/20 00:57:15;;;;;;;4.40;2.88;;;;;;;5.40;100.00;101837.78;10306412;28;20034;-76
2022/04/20 01:02:15;;;;;;;4.22;2.67;;;;;;;5.31;100.00;101839.78;10305084;28;20031;-75
2022/04/20 01:07:16;;;;;;;4.00;2.63;;;;;;;5.22;100.00;101825.44;10321935;28;20027;-76
2022/04/20 01:12:17;;;;;;;5.22;3.10;;;;;;;5.29;100.00;101841.03;10334508;28;20494;-76
2022/04/20 01:17:18;;;;;;;7.90;2.92;;;;;;;5.16;100.00;101825.38;10314196;28;20045;-77
2022/04/20 01:22:18;;;;;;;5.43;3.13;;;;;;;5.16;100.00;101830.84;10353117;28;20038;-77
2022/04/20 01:27:19;;;;;;;6.72;3.03;;;;;;;5.15;100.00;101835.44;10321151;28;20041;-76
2022/04/20 01:32:19;;;;;;;5.40;2.80;;;;;;;5.16;100.00;101841.75;10337066;28;20045;-76
2022/04/20 01:37:20;;;;;;;6.28;2.95;;;;;;;5.12;100.00;101835.00;10353239;28;20035;-74
2022/04/20 01:42:20;;;;;;;6.97;3.58;;;;;;;5.09;100.00;101836.22;10352449;28;20414;-74
2022/04/20 01:47:21;;;;;;;5.03;3.17;;;;;;;5.02;100.00;101847.09;10311285;28;20050;-74
2022/04/20 01:52:21;;;;;;;7.40;3.50;;;;;;;4.86;100.00;101825.50;10312079;28;20038;-76
2022/04/20 01:57:21;;;;;;;5.47;3.17;;;;;;;4.90;100.00;101836.84;10311633;28;20458;-77
2022/04/20 02:02:34;;;;;;;5.32;2.90;;;;;;;4.86;100.00;101860.97;10311590;28;20042;-76
2022/04/20 02:07:35;;;;;;;5.93;3.60;;;;;;;4.78;100.00;101834.63;10312126;28;20054;-76
2022/04/20 02:12:36;;;;;;;6.45;3.92;;;;;;;4.84;100.00;101849.41;10325755;28;20046;-77
2022/04/20 02:17:36;;;;;;;6.18;3.45;;;;;;;4.81;100.00;101852.50;10352271;28;20035;-76
2022/04/20 02:22:37;;;;;;;6.32;3.85;;;;;;;4.76;100.00;101846.78;10351145;28;20037;-76
2022/04/20 02:27:37;;;;;;;6.80;3.13;;;;;;;4.68;100.00;101831.38;10351802;28;20023;-76
2022/04/20 02:32:38;;;;;;;6.85;3.67;;;;;;;4.69;100.00;101834.94;10350208;28;20039;-76
2022/04/20 02:37:38;;;;;;;5.22;3.20;;;;;;;4.62;100.00;101835.69;10350801;28;20046;-76
2022/04/20 02:42:39;;;;;;;10.85;3.50;;;;;;;4.29;100.00;101785.38;10334765;28;20038;-75
2022/04/20 02:47:39;;;;;;;9.57;3.42;;;;;;;4.55;100.00;101845.69;10334054;28;20380;-76
2022/04/20 02:52:40;;;;;;;7.45;3.25;;;;;;;4.41;100.00;101838.38;10330922;28;20033;-76
2022/04/20 02:57:40;;;;;;;7.95;4.03;;;;;;;4.30;100.00;101826.09;10349439;28;20023;-76
2022/04/20 03:02:41;;;;;;;5.13;3.60;;;;;;;4.31;100.00;101835.09;10317644;28;20041;-76
2022/04/20 03:07:41;;;;;;;8.73;4.05;;;;;;;4.34;100.00;101842.88;10350096;28;20040;-76
2022/04/20 03:12:42;;;;;;;7.13;3.60;;;;;;;4.28;100.00;101843.63;10349831;28;20047;-76
2022/04/20 03:17:42;;;;;;;6.32;3.35;;;;;;;4.24;100.00;101841.31;10348338;28;20096;-76
2022/04/20 03:22:42;;;;;;;6.22;3.55;;;;;;;3.99;100.00;101793.56;10332366;28;20065;-77
2022/04/20 03:27:43;;;;;;;7.38;3.80;;;;;;;4.14;100.00;101829.84;10349997;28;20587;-77
2022/04/20 03:32:44;;;;;;;5.95;3.63;;;;;;;4.18;100.00;101861.13;10349882;28;20383;-76
2022/04/20 03:37:44;;;;;;;7.57;4.18;;;;;;;4.04;100.00;101867.44;10348863;28;20093;-76
2022/04/20 03:42:45;;;;;;;7.10;4.00;;;;;;;4.03;100.00;101863.00;10317097;28;20046;-76
2022/04/20 03:47:45;;;;;;;7.60;3.88;;;;;;;4.07;100.00;101875.22;10319282;28;20057;-76
2022/04/20 03:52:45;;;;;;;8.25;4.00;;;;;;;3.81;100.00;101843.81;10331006;28;20038;-76
2022/04/20 03:57:46;;;;;;;5.78;3.85;;;;;;;3.94;100.00;101886.75;10307033;28;20054;-76
2022/04/20 04:02:46;;;;;;;7.75;3.50;;;;;;;3.89;100.00;101894.66;10308525;28;20035;-76
2022/04/20 04:07:47;;;;;;;5.45;3.85;;;;;;;3.83;100.00;101885.34;10308751;28;20035;-76
2022/04/20 04:12:47;;;;;;;5.97;3.60;;;;;;;3.79;100.00;101892.19;10308493;28;20083;-77
2022/04/20 04:17:54;;;;;;;5.65;4.03;;;;;;;3.72;100.00;101884.94;10316116;28;20065;-76
2022/04/20 04:22:54;;;;;;;5.88;3.75;;;;;;;3.72;100.00;101890.38;10328687;28;20043;-76
2022/04/20 04:27:55;;;;;;;7.80;4.43;;;;;;;3.53;100.00;101872.69;10347967;28;20054;-77
2022/04/20 04:32:55;;;;;;;8.30;4.40;;;;;;;3.43;100.00;101868.34;10346635;28;20035;-76
2022/04/20 04:37:56;;;;;;;7.13;4.00;;;;;;;3.47;100.00;101876.13;10346812;28;20026;-76
2022/04/20 04:42:57;;;;;;;5.55;3.80;;;;;;;3.48;100.00;101896.91;10346028;28;20398;-77
2022/04/20 04:53:16;;;;;;;5.97;3.50;;;;;;;3.29;100.00;101895.47;10311069;28;20035;-77
2022/04/20 04:58:16;;;;;;;7.35;4.43;;;;;;;3.33;100.00;101904.97;10347144;28;20031;-76
2022/04/20 05:03:17;;;;;;;9.95;4.82;;;;;;;3.28;100.00;101896.53;10320986;28;20034;-76
2022/04/20 05:08:17;;;;;;;8.25;4.40;;;;;;;3.32;100.00;101906.88;10305456;28;20074;-77
2022/04/20 05:13:18;;;;;;;6.60;4.18;;;;;;;3.01;100.00;101845.16;10320816;28;20082;-77
2022/04/20 05:18:18;;;;;;;8.65;4.30;;;;;;;3.38;100.00;101905.31;10304834;28;20042;-77
2022/04/20 05:23:19;;;;;;;12.95;4.50;;;;;;;3.38;100.00;101902.56;10304762;28;20042;-77
2022/04/20 05:28:19;;;;;;;6.35;4.30;;;;;;;3.49;100.00;101888.53;10304777;28;20042;-76
2022/04/20 05:33:20;;;;;;;8.50;4.43;;;;;;;3.83;100.00;101918.03;10321663;28;20039;-75
2022/04/20 05:43:40;;;;;;;6.45;3.92;;;;;;;4.40;100.00;101896.66;10317777;28;20114;-76
2022/04/20 05:48:41;;;;;;;7.53;4.03;;;;;;;4.77;100.00;101897.56;10320074;28;20335;-76
2022/04/20 05:53:41;;;;;;;9.48;3.85;;;;;;;5.32;100.00;101914.38;10317700;28;20062;-76
2022/04/20 05:58:44;;;;;;;6.15;3.92;;;;;;;5.54;100.00;101894.22;10306061;28;20043;-76
2022/04/20 06:03:45;;;;;;;13.07;4.50;;;;;;;5.97;100.00;101907.00;10306676;28;20419;-76
2022/04/20 06:08:47;;;;;;;7.38;3.78;;;;;;;6.30;100.00;101909.13;10327483;28;20090;-76
2022/04/20 06:13:47;;;;;;;6.82;4.20;;;;;;;6.52;100.00;101896.22;10310879;28;20054;-75
2022/04/20 06:18:48;;;;;;;9.02;4.28;;;;;;;6.84;100.00;101911.09;10311898;28;20058;-76
2022/04/20 06:23:48;;;;;;;7.50;4.07;;;;;;;7.08;100.00;101902.34;10327237;28;20031;-76
2022/04/20 06:28:49;;;;;;;10.88;4.50;;;;;;;7.33;100.00;101904.50;10311423;28;20030;-76
2022/04/20 06:33:49;;;;;;;6.25;4.22;;;;;;;7.61;100.00;101915.31;10311383;28;20031;-75
2022/04/20 06:38:49;;;;;;;8.23;4.18;;;;;;;7.96;100.00;101914.25;10326447;28;20038;-76
2022/04/20 06:43:50;;;;;;;10.73;4.10;;;;;;;8.12;100.00;101905.59;10310823;28;20034;-74
2022/04/20 06:48:50;;;;;;;8.15;3.90;;;;;;;8.47;100.00;101910.84;10325151;28;20049;-75
2022/04/20 06:59:10;;;;;;;8.95;4.22;;;;;;;8.98;100.00;101896.31;10311565;28;20039;-74
2022/04/20 07:04:10;;;;;;;8.45;3.63;;;;;;;9.04;100.00;101883.59;10309828;28;20046;-75
2022/04/20 07:09:11;;;;;;;6.35;3.35;;;;;;;9.33;100.00;101890.41;10336527;28;20045;-76
2022/04/20 07:14:11;;;;;;;6.32;3.50;;;;;;;9.53;100.00;101886.66;10388694;28;20030;-76
2022/04/20 07:19:12;;;;;;;6.90;3.20;;;;;;;9.79;100.00;101885.63;10385323;28;20057;-76
2022/04/20 07:24:12;;;;;;;6.18;2.60;;;;;;;9.94;96.48;101877.03;10372124;28;20034;-75
2022/04/20 07:29:13;;;;;;;5.85;3.50;;;;;;;10.03;95.29;101878.44;10390121;28;20052;-75
2022/04/20 07:34:13;;;;;;;4.50;2.60;;;;;;;10.18;93.12;101886.34;10389708;28;20814;-75
2022/04/20 07:39:14;;;;;;;4.80;2.75;;;;;;;10.42;91.89;101891.00;10387809;28;20410;-75
2022/04/20 07:44:14;;;;;;;4.22;2.05;;;;;;;10.56;87.73;101879.81;10383140;28;20037;-75
2022/04/20 07:54:34;;;;;;;5.68;2.70;;;;;;;11.00;85.11;101881.38;10384590;28;20029;-75
2022/04/20 07:59:35;;;;;;;3.38;2.13;;;;;;;10.87;80.27;101829.19;10389009;28;20034;-75
2022/04/20 08:04:35;;;;;;;4.45;1.70;;;;;;;11.27;79.59;101870.00;10344226;28;20038;-74
2022/04/20 08:09:36;;;;;;;2.40;1.60;;;;;;;11.40;79.36;101856.00;10330640;28;20041;-75
2022/04/20 08:14:37;;;;;;;4.45;2.03;;;;;;;11.67;79.69;101852.81;10374057;28;20038;-74
2022/04/20 08:19:37;;;;;;;4.85;1.88;;;;;;;11.81;76.17;101848.75;10367367;28;20038;-75
2022/04/20 08:24:38;;;;;;;2.67;1.48;;;;;;;12.20;73.48;101856.59;10386191;28;20045;-75
2022/04/20 08:29:39;;;;;;;3.03;1.83;;;;;;;12.40;72.90;101861.72;10386187;28;20049;-76
2022/04/20 08:34:39;;;;;;;3.33;1.60;;;;;;;12.58;71.27;101875.38;10385433;28;20088;-74
2022/04/20 08:39:40;;;;;;;1.90;1.30;;;;;;;12.68;67.95;101842.44;10385920;28;20516;-75
2022/04/20 08:44:43;;;;;;;4.05;1.15;;;;;;;12.81;66.97;101857.06;10386211;28;20026;-74
2022/04/20 08:49:43;;;;;;;2.63;1.27;;;;;;;12.82;64.72;101825.59;10354385;28;20045;-74
2022/04/20 08:54:44;;;;;;;2.60;1.35;;;;;;;13.07;65.68;101842.66;10345630;28;20030;-74
2022/04/20 08:59:48;;;;;;;4.93;1.50;;;;;;;13.26;59.04;101812.03;10347309;28;20053;-75
2022/04/20 09:04:49;;;;;;;5.10;1.38;;;;;;;13.27;58.48;101813.69;10346493;28;20094;-74
2022/04/20 09:09:50;;;;;;;2.67;1.30;;;;;;;13.30;61.83;101816.00;10345115;28;20030;-75
2022/04/20 09:14:51;;;;;;;3.67;1.30;;;;;;;13.57;60.29;101809.81;10344409;28;20034;-76
2022/04/20 09:19:55;;;;;;;2.97;1.75;;;;;;;13.83;59.84;101817.44;10320980;28;20046;-75
2022/04/20 09:25:00;;;;;;;3.30;1.20;;;;;;;13.91;57.46;101797.63;10305189;28;20038;-75
2022/04/20 09:30:01;;;;;;;3.17;1.00;;;;;;;14.20;56.45;101811.34;10321112;28;20043;-75
2022/04/20 09:35:03;;;;;;;2.38;0.93;;;;;;;14.11;56.44;101790.69;10304295;28;20037;-75
2022/04/20 09:40:05;;;;;;;3.72;0.98;;;;;;;14.31;55.72;101798.44;10323398;28;20070;-75
2022/04/20 09:45:07;;;;;;;2.83;1.10;;;;;;;14.45;54.45;101782.25;10313528;28;20475;-75
2022/04/20 09:50:08;;;;;;;2.35;1.08;;;;;;;14.71;54.43;101775.13;10320160;28;20086;-75
2022/04/20 09:55:12;;;;;;;1.52;1.00;;;;;;;14.83;53.49;101772.22;10353474;28;20101;-74
2022/04/20 10:00:14;;;;;;;2.83;1.10;;;;;;;15.18;54.40;101795.88;10351709;28;20042;-74
2022/04/20 10:05:15;;;;;;;2.83;1.00;;;;;;;15.34;51.17;101773.53;10335759;28;20030;-75
2022/04/20 10:10:16;;;;;;;1.70;1.00;;;;;;;15.44;50.06;101772.78;10351196;28;20436;-75
2022/04/20 10:20:35;;;;;;;1.77;1.20;;;;;;;15.51;48.85;101704.00;10351673;28;20040;-74
2022/04/20 10:25:36;;;;;;;2.78;1.20;;;;;;;16.06;48.45;101748.22;10350927;28;20026;-74
2022/04/20 10:30:45;;;;;;;2.17;1.05;;;;;;;16.29;49.78;101760.84;10351977;28;20030;-70
2022/04/20 10:36:00;;;;;;;3.20;0.90;;;;;;;16.52;48.42;101740.09;10352198;28;20058;-77
2022/04/20 10:41:05;;;;;;;3.13;0.82;;;;;;;16.73;48.34;101749.31;10334710;28;20038;-77
2022/04/20 10:46:16;;;;;;;3.83;1.00;;;;;;;16.93;50.06;101748.56;10351114;28;20035;-73
2022/04/20 10:51:17;;;;;;;1.75;0.88;;;;;;;17.05;49.50;101734.38;10310106;28;20054;-74
2022/04/20 10:56:19;;;;;;;1.90;0.77;;;;;;;17.04;50.18;101727.97;10310595;28;20049;-76
2022/04/20 11:01:20;;;;;;;3.78;1.25;;;;;;;17.21;47.78;101722.13;10325095;28;20039;-74
2022/04/20 11:06:20;;;;;;;2.22;0.70;;;;;;;17.32;46.33;101711.81;10310169;28;20035;-74
2022/04/20 11:22:23;;;;;;;2.05;0.70;;;;;;;17.80;47.51;101708.66;10347168;28;20092;-76
2022/04/20 11:27:33;;;;;;;2.10;0.70;;;;;;;18.05;47.85;101702.25;10375301;28;20037;-74
2022/04/20 11:32:34;;;;;;;3.72;0.90;;;;;;;18.17;45.63;101693.53;10388868;28;20029;-74
2022/04/20 11:37:37;;;;;;;1.35;0.80;;;;;;;18.17;44.52;101694.38;10389214;28;20069;-74
2022/04/20 11:42:37;;;;;;;0.70;0.68;;;;;;;18.25;46.34;101682.63;10387070;28;20121;-73
2022/04/20 11:47:42;;;;;;;1.63;0.77;;;;;;;18.15;47.04;101649.25;10369990;28;20410;-75
2022/04/20 11:52:58;;;;;;;2.30;0.70;;;;;;;19.14;45.90;101678.97;10373242;28;20041;-74
2022/04/20 11:58:14;;;;;;;2.25;0.88;;;;;;;19.44;44.24;101666.69;10345292;28;20026;-74
2022/04/20 12:03:14;;;;;;;2.13;0.73;;;;;;;19.99;42.37;101654.34;10345656;28;20037;-74
2022/04/20 12:08:14;;;;;;;2.67;1.42;;;;;;;20.32;44.41;101664.53;10346284;28;20324;-75
2022/04/20 12:13:15;;;;;;;4.65;0.90;;;;;;;20.88;41.24;101618.09;10345492;28;20046;-74
2022/04/20 12:18:16;;;;;;;3.17;1.10;;;;;;;20.85;42.22;101643.88;10345242;28;20038;-75
2022/04/20 12:23:17;;;;;;;3.65;1.17;;;;;;;21.72;41.29;101644.28;10345367;28;20026;-73
2022/04/20 12:28:35;;;;;;;2.85;1.17;;;;;;;22.35;40.16;101623.03;10345396;28;20459;-81
2022/04/20 12:33:37;;;;;;;2.15;1.30;;;;;;;22.47;39.56;101614.91;10345638;28;20029;-84
2022/04/20 12:38:44;;;;;;;3.00;1.50;;;;;;;22.48;40.74;101622.16;10344713;28;20046;-78
2022/04/20 12:43:45;;;;;;;2.47;1.67;;;;;;;22.24;41.17;101621.59;10345097;28;20035;-79
2022/04/20 12:48:47;;;;;;;1.98;1.30;;;;;;;22.77;39.19;101606.88;10345444;28;20026;-76
2022/04/20 12:53:48;;;;;;;2.55;1.02;;;;;;;22.58;39.50;101570.56;10357179;28;20545;-76
2022/04/20 13:04:13;;;;;;;2.75;1.70;;;;;;;23.13;37.34;101601.19;10387074;28;20237;-68
2022/04/20 13:09:14;;;;;;;3.15;1.70;;;;;;;22.83;37.49;101593.53;10385403;28;20483;-73
2022/04/20 13:14:15;;;;;;;3.53;1.73;;;;;;;22.80;39.60;101595.00;10375734;28;20045;-72
2022/04/20 13:19:16;;;;;;;5.75;1.92;;;;;;;22.91;38.08;101573.09;10380735;28;20487;-70
2022/04/20 13:27:54;;;;;;;4.13;2.03;;;;;;;22.83;39.49;101583.13;10397044;28;20105;-68
2022/04/20 13:29:38;;;;;;;4.45;2.20;;;;;;;23.56;40.09;101594.94;10399633;28;20561;-68
2022/04/20 13:34:38;;;;;;;4.03;1.95;;;;;;;23.07;40.12;101590.38;10382434;28;20113;-72
2022/04/20 13:39:39;;;;;;;2.88;2.40;;;;;;;22.95;40.19;101590.97;10365899;28;20626;-70
2022/04/20 13:44:39;;;;;;;3.03;2.33;;;;;;;23.24;39.64;101606.53;10357851;28;20497;-66
2022/04/20 13:49:41;;;;;;;4.55;2.47;;;;;;;23.30;40.53;101577.16;10358029;28;20379;-65
2022/04/20 13:54:41;;;;;;;3.85;2.45;;;;;;;23.08;39.11;101578.84;10319154;28;20031;-68
2022/04/20 13:59:42;;;;;;;5.85;2.90;;;;;;;23.26;40.33;101598.59;10317596;28;20027;-69
2022/04/20 14:04:42;;;;;;;3.35;2.50;;;;;;;23.44;39.28;101575.06;10318053;28;20047;-73
2022/04/20 14:09:43;;;;;;;3.45;2.50;;;;;;;22.87;39.05;101566.47;10318059;28;20035;-68
2022/04/20 14:14:44;;;;;;;5.63;2.42;;;;;;;22.63;39.99;101578.03;10300410;28;20050;-69
2022/04/20 14:19:45;;;;;;;4.72;2.25;;;;;;;23.06;38.75;101581.13;10342912;28;20054;-72
2022/04/20 14:24:46;;;;;;;4.55;2.70;;;;;;;23.13;39.23;101577.88;10355208;28;20061;-73
2022/04/20 14:35:12;;;;;;;4.75;3.05;;;;;;;23.60;40.45;101566.97;10350358;28;20035;-71
2022/04/20 14:40:12;;;;;;;6.07;2.90;;;;;;;23.74;40.18;101561.25;10349984;28;20050;-72
2022/04/20 14:45:13;;;;;;;5.30;3.17;;;;;;;22.74;41.32;101509.28;10350530;28;20077;-71
2022/04/20 14:50:13;;;;;;;5.30;3.53;;;;;;;23.16;40.50;101563.19;10349638;28;20034;-74
2022/04/20 14:55:14;;;;;;;6.20;3.05;;;;;;;24.09;40.58;101566.94;10350588;28;20049;-72
2022/04/20 15:00:15;;;;;;;6.63;3.80;;;;;;;23.39;41.11;101578.00;10333656;28;20034;-69
2022/04/20 15:05:15;;;;;;;5.63;3.60;;;;;;;23.85;39.77;101568.22;10389299;28;20042;-73
2022/04/20 15:10:16;;;;;;;3.10;2.80;;;;;;;24.07;38.88;101552.38;10388874;28;20038;-73
2022/04/20 15:15:17;;;;;;;4.38;2.70;;;;;;;24.16;37.47;101550.41;10390307;28;20105;-72
2022/04/20 15:20:18;;;;;;;3.95;2.92;;;;;;;24.29;37.45;101538.16;10382333;28;20057;-74
2022/04/20 15:25:18;;;;;;;4.40;3.17;;;;;;;25.17;37.33;101530.34;10372056;28;20033;-74
2022/04/20 15:30:19;;;;;;;5.40;3.50;;;;;;;25.00;38.59;101541.72;10389342;28;20464;-74
2022/04/20 15:35:20;;;;;;;7.03;4.43;;;;;;;24.88;39.27;101545.22;10386753;28;20030;-73
2022/04/20 15:40:21;;;;;;;4.68;4.03;;;;;;;25.39;37.63;101534.13;10387735;28;20058;-72
2022/04/20 15:45:21;;;;;;;6.03;3.72;;;;;;;25.21;38.84;101533.38;10386515;28;20162;-73
2022/04/20 15:50:22;;;;;;;4.95;3.83;;;;;;;24.81;39.22;101492.22;10380599;28;20022;-74
2022/04/20 16:00:44;;;;;;;5.97;4.28;;;;;;;24.38;38.92;101524.91;10352199;28;20143;-75
2022/04/20 16:05:44;;;;;;;6.53;3.95;;;;;;;24.34;40.21;101537.97;10382860;28;20034;-76
2022/04/20 16:10:45;;;;;;;6.93;3.90;;;;;;;24.67;39.00;101526.22;10353501;28;20568;-71
2022/04/20 16:15:46;;;;;;;5.05;4.07;;;;;;;24.86;38.87;101528.63;10383708;28;20070;-76
2022/04/20 16:20:46;;;;;;;4.95;4.18;;;;;;;24.41;40.49;101511.31;10339665;28;20042;-75
2022/04/20 16:25:47;;;;;;;6.40;4.28;;;;;;;23.67;40.76;101532.75;10326200;28;20034;-75
2022/04/20 16:30:47;;;;;;;4.95;4.00;;;;;;;23.72;40.32;101519.38;10345125;28;20034;-70
2022/04/20 16:35:51;;;;;;;5.47;3.97;;;;;;;23.36;41.58;101506.44;10346734;28;20026;-75
2022/04/20 16:40:52;;;;;;;5.30;4.60;;;;;;;22.76;41.95;101527.44;10346523;28;20045;-72
2022/04/20 16:45:54;;;;;;;8.00;4.00;;;;;;;22.73;41.84;101533.69;10332912;28;20467;-70
2022/04/20 16:50:55;;;;;;;7.05;4.10;;;;;;;22.15;43.17;101520.53;10317187;28;20039;-71
2022/04/20 16:55:56;;;;;;;5.20;4.55;;;;;;;21.19;44.84;101546.69;10304953;28;20429;-70
2022/04/20 17:00:57;;;;;;;6.88;4.45;;;;;;;19.74;47.02;101553.81;10320814;28;20041;-70
2022/04/20 17:05:58;;;;;;;6.75;4.18;;;;;;;18.81;48.95;101560.69;10354987;28;20037;-72
2022/04/20 17:10:58;;;;;;;7.78;4.70;;;;;;;17.86;51.12;101571.94;10344414;28;20031;-70
2022/04/20 17:16:00;;;;;;;8.40;4.38;;;;;;;16.86;53.76;101572.75;10312850;28;20054;-70
2022/04/20 17:26:35;;;;;;;6.30;4.30;;;;;;;15.94;56.02;101591.00;10339702;28;20026;-70
2022/04/20 17:31:37;;;;;;;5.93;4.32;;;;;;;15.48;58.29;101601.88;10332549;28;20113;-71
2022/04/20 17:36:42;;;;;;;7.70;4.45;;;;;;;14.88;60.55;101592.06;10344269;28;20089;-72
2022/04/20 17:41:45;;;;;;;10.38;4.68;;;;;;;14.41;62.01;101592.75;10337495;28;20038;-74
2022/04/20 17:46:47;;;;;;;11.43;4.78;;;;;;;14.07;64.58;101604.03;10355545;28;20047;-73
2022/04/20 17:51:49;;;;;;;5.90;3.97;;;;;;;13.66;64.75;101575.84;10343366;28;20427;-74
2022/04/20 17:56:50;;;;;;;7.97;4.43;;;;;;;13.42;65.99;101581.66;10350430;28;20490;-72
2022/04/20 18:01:50;;;;;;;7.50;4.35;;;;;;;13.26;66.26;101585.28;10345276;28;20045;-71
2022/04/20 18:06:51;;;;;;;5.75;3.50;;;;;;;13.09;67.65;101588.91;10350722;28;20104;-71
2022/04/20 18:11:53;;;;;;;9.07;4.03;;;;;;;12.86;67.00;101589.09;10334427;28;20030;-71
2022/04/20 18:16:53;;;;;;;5.80;3.58;;;;;;;12.75;68.69;101598.31;10333586;28;20419;-71
2022/04/20 18:21:54;;;;;;;7.75;2.92;;;;;;;12.49;69.86;101593.19;10349406;28;20042;-71
2022/04/20 18:26:54;;;;;;;7.43;3.45;;;;;;;12.31;70.09;101602.53;10350298;28;20045;-71
2022/04/20 18:31:55;;;;;;;4.40;3.17;;;;;;;12.08;72.31;101616.47;10351799;28;20049;-70
2022/04/20 18:36:56;;;;;;;3.78;2.30;;;;;;;11.95;73.34;101613.97;10334302;28;20034;-71
2022/04/20 18:41:56;;;;;;;4.07;2.10;;;;;;;11.45;73.86;101574.03;10334529;28;20038;-70
2022/04/20 18:46:57;;;;;;;6.82;2.67;;;;;;;11.57;75.44;101620.88;10309627;28;20035;-69
2022/04/20 18:51:57;;;;;;;3.70;2.30;;;;;;;11.41;77.67;101634.34;10309429;28;20039;-71
2022/04/20 19:02:17;;;;;;;5.85;2.42;;;;;;;10.72;77.74;101586.41;10309609;28;20588;-71
2022/04/20 19:07:21;;;;;;;3.63;2.70;;;;;;;10.90;77.73;101638.66;10311356;28;20031;-71
2022/04/20 19:12:23;;;;;;;4.55;2.38;;;;;;;10.70;78.74;101645.31;10309012;28;20093;-69
2022/04/20 19:17:25;;;;;;;4.43;1.90;;;;;;;10.65;80.85;101641.63;10323463;28;20055;-70
2022/04/20 19:22:25;;;;;;;4.30;2.58;;;;;;;10.56;81.30;101660.38;10335029;28;20042;-70
2022/04/20 19:27:25;;;;;;;5.20;2.75;;;;;;;10.17;80.70;101613.09;10319094;28;20030;-70
2022/04/20 19:32:26;;;;;;;3.00;2.10;;;;;;;10.27;80.60;101649.13;10337757;28;20031;-71
2022/04/20 19:37:27;;;;;;;4.57;2.78;;;;;;;10.15;81.45;101651.00;10337960;28;20026;-70
2022/04/20 19:42:27;;;;;;;5.00;2.40;;;;;;;10.12;81.88;101658.88;10341381;28;20038;-70
2022/04/20 19:47:28;;;;;;;3.75;2.20;;;;;;;9.99;82.74;101654.38;10345982;28;20034;-70
2022/04/20 19:52:28;;;;;;;3.40;2.10;;;;;;;9.82;83.70;101652.25;10329436;28;20026;-70
2022/04/20 19:57:29;;;;;;;3.83;2.25;;;;;;;9.75;84.71;101651.47;10347614;28;20031;-70
2022/04/20 20:02:29;;;;;;;3.00;2.13;;;;;;;9.62;84.65;101654.41;10348091;28;20026;-71
2022/04/20 20:07:32;;;;;;;4.88;2.50;;;;;;;9.39;87.05;101644.91;10348214;28;20030;-70
2022/04/20 20:12:34;;;;;;;4.35;2.38;;;;;;;9.40;87.70;101652.09;10345612;28;20053;-70
2022/04/20 20:17:34;;;;;;;3.60;2.10;;;;;;;9.23;89.02;101646.34;10346473;28;20097;-71
2022/04/20 20:22:35;;;;;;;8.57;2.70;;;;;;;9.18;90.25;101661.84;10345946;28;20049;-71
2022/04/20 20:30:03;;;;;;;5.05;2.55;;;;;;;9.08;92.05;101660.44;10345332;28;20034;-70
2022/04/20 20:33:02;;;;;;;6.27;2.20;;;;;;;8.98;91.68;101660.09;10346526;28;20026;-70
2022/04/20 20:38:02;;;;;;;9.60;2.80;;;;;;;8.89;94.38;101655.97;10345256;28;20390;-70
2022/04/20 20:43:02;;;;;;;7.03;2.88;;;;;;;8.81;93.98;101656.25;10343826;28;20482;-71
2022/04/20 20:48:03;;;;;;;5.20;2.42;;;;;;;8.76;96.40;101662.38;10345423;28;20036;-70
2022/04/20 20:53:05;;;;;;;6.03;3.03;;;;;;;8.73;96.96;101651.84;10343659;28;20104;-70
2022/04/20 20:58:06;;;;;;;5.43;2.78;;;;;;;8.72;97.22;101654.81;10327300;28;20034;-70
2022/04/20 21:03:06;;;;;;;6.65;2.83;;;;;;;8.35;96.93;101597.00;10346104;28;20031;-70
2022/04/20 21:08:07;;;;;;;4.72;3.00;;;;;;;8.61;95.76;101654.47;10327887;28;20038;-70
2022/04/20 21:13:08;;;;;;;4.75;2.50;;;;;;;8.55;97.19;101643.53;10344664;28;20050;-71
2022/04/20 21:18:08;;;;;;;7.22;2.95;;;;;;;8.51;98.17;101648.63;10344657;28;20049;-70
2022/04/20 21:23:09;;;;;;;6.32;2.60;;;;;;;8.41;97.76;101651.03;10344022;28;20038;-71
2022/04/20 21:28:09;;;;;;;5.60;3.20;;;;;;;8.24;98.67;101643.28;10345773;28;20061;-70
2022/04/20 21:33:11;;;;;;;6.57;3.20;;;;;;;8.24;99.93;101654.25;10332789;28;20053;-70
2022/04/20 21:38:11;;;;;;;4.10;2.50;;;;;;;8.12;100.00;101656.00;10353660;28;20082;-71
2022/04/20 21:43:12;;;;;;;6.13;2.97;;;;;;;8.07;100.00;101664.91;10352430;28;20478;-71
2022/04/20 21:48:12;;;;;;;5.88;3.58;;;;;;;7.95;100.00;101652.09;10348196;28;20566;-70
2022/04/20 21:53:13;;;;;;;6.13;4.18;;;;;;;7.92;100.00;101660.75;10324438;28;20027;-70
2022/04/20 21:58:14;;;;;;;6.10;3.50;;;;;;;7.82;100.00;101653.00;10312187;28;20035;-70
2022/04/20 22:08:51;;;;;;;7.28;3.58;;;;;;;7.66;100.00;101652.41;10311497;28;20039;-70
2022/04/20 22:13:52;;;;;;;8.13;3.53;;;;;;;7.67;100.00;101675.19;10312033;28;20043;-71
2022/04/20 22:18:53;;;;;;;12.43;4.28;;;;;;;7.51;100.00;101654.56;10310768;28;20074;-71
2022/04/20 22:23:53;;;;;;;7.93;3.92;;;;;;;7.56;100.00;101668.44;10312806;28;20145;-71
2022/04/20 22:28:53;;;;;;;8.00;4.75;;;;;;;7.37;100.00;101642.78;10311094;28;20042;-70
2022/04/20 22:33:55;;;;;;;7.60;4.32;;;;;;;7.48;100.00;101669.53;10311855;28;20034;-70
2022/04/20 22:38:56;;;;;;;7.65;4.80;;;;;;;7.46;100.00;101668.06;10311798;28;20178;-70
2022/04/20 22:43:57;;;;;;;7.90;4.60;;;;;;;7.41;100.00;101660.47;10293368;28;20046;-70
2022/04/20 22:48:57;;;;;;;9.73;4.97;;;;;;;7.34;100.00;101659.66;10309083;28;20501;-70
2022/04/20 22:53:58;;;;;;;10.13;5.72;;;;;;;7.28;100.00;101652.31;10310489;28;20027;-70
2022/04/20 22:58:59;;;;;;;10.05;5.47;;;;;;;7.07;100.00;101626.00;10310376;28;20031;-70
2022/04/20 23:04:00;;;;;;;8.75;5.45;;;;;;;7.17;100.00;101650.19;10323001;28;20038;-70
2022/04/20 23:09:00;;;;;;;9.63;5.63;;;;;;;6.97;100.00;101634.66;10349909;28;20026;-70
2022/04/20 23:14:02;;;;;;;8.15;5.10;;;;;;;7.01;100.00;101656.97;10345859;28;20070;-70
2022/04/20 23:19:03;;;;;;;9.63;5.45;;;;;;;6.83;100.00;101635.72;10347820;28;20042;-70
2022/04/20 23:24:03;;;;;;;12.00;6.43;;;;;;;6.83;100.00;101649.38;10348159;28;20038;-70
2022/04/20 23:29:04;;;;;;;9.23;6.18;;;;;;;6.73;100.00;101632.53;10349676;28;20034;-70
2022/04/20 23:34:04;;;;;;;10.50;5.85;;;;;;;6.72;100.00;101644.53;10350147;28;20062;-70
2022/04/20 23:39:05;;;;;;;12.15;6.43;;;;;;;6.65;100.00;101642.63;10348071;28;20035;-70
2022/04/20 23:44:05;;;;;;;8.90;6.05;;;;;;;6.57;100.00;101634.63;10349232;28;20027;-70
2022/04/20 23:49:06;;;;;;;12.63;6.53;;;;;;;6.54;100.00;101629.59;10350075;28;20062;-70
2022/04/20 23:54:06;;;;;;;10.20;7.22;;;;;;;6.51;100.00;101638.22;10349560;28;20031;-70
2022/04/20 23:59:06;;;;;;;13.10;7.45;;;;;;;6.44;100.00;101631.88;10348635;28;20507;-70
